Time;durP1;ratioP1;P1;durP2;ratioP2;P2;SDS_P1;SDS_P2;PMS_P1;PMS_P2;Temp;Humidity;BMP_temperature;BMP_pressure;BME280_temperature;BME280_humidity;BME280_pressure;Samples;Min_cycle;Max_cycle;Signal;HPM_P1;HPM_P2
2022/06/01 00:05:12;;;;;;;4.15;2.20;;;;;;;14.80;70.41;100164.81;20905459;28;20099;-64
2022/06/01 00:15:16;;;;;;;3.38;1.90;;;;;;;14.82;72.17;100165.63;20904975;28;20052;-64
2022/06/01 00:25:18;;;;;;;4.73;2.20;;;;;;;14.69;73.61;100159.09;20903683;28;20045;-64
2022/06/01 00:35:22;;;;;;;5.07;2.30;;;;;;;14.57;74.19;100155.97;20902769;28;20540;-66
2022/06/01 00:45:30;;;;;;;4.53;2.10;;;;;;;14.42;76.74;100158.25;20902473;28;20127;-67
2022/06/01 00:55:35;;;;;;;3.60;2.00;;;;;;;14.15;77.56;100152.19;20901821;28;20048;-68
2022/06/01 01:05:40;;;;;;;7.10;2.42;;;;;;;13.92;77.63;100169.59;20900717;28;20102;-68
2022/06/01 01:15:52;;;;;;;4.13;2.22;;;;;;;13.80;77.35;100162.13;20901126;28;20516;-67
2022/06/01 01:25:53;;;;;;;5.78;2.10;;;;;;;13.59;77.91;100174.19;20899939;28;20045;-66
2022/06/01 01:36:01;;;;;;;5.50;2.15;;;;;;;13.65;78.65;100173.13;20900682;28;20064;-69
2022/06/01 01:46:03;;;;;;;5.80;2.63;;;;;;;13.73;80.53;100171.97;20916368;28;20045;-66
2022/06/01 01:56:19;;;;;;;9.25;2.72;;;;;;;13.50;82.63;100164.81;20916115;28;20102;-67
2022/06/01 02:06:39;;;;;;;7.13;3.08;;;;;;;13.70;83.24;100169.47;20914277;28;20067;-66
2022/06/01 02:16:47;;;;;;;6.78;3.60;;;;;;;13.66;84.10;100159.09;20913917;28;20053;-66
2022/06/01 02:26:50;;;;;;;4.65;2.90;;;;;;;13.66;85.29;100159.09;20913608;28;20045;-67
2022/06/01 02:36:51;;;;;;;7.15;3.42;;;;;;;13.57;85.97;100155.84;20911974;28;20052;-67
2022/06/01 02:46:52;;;;;;;5.95;3.33;;;;;;;13.38;87.28;100159.97;20911314;28;20111;-66
2022/06/01 02:56:54;;;;;;;7.72;3.63;;;;;;;13.07;88.28;100168.72;20911007;28;20498;-66
2022/06/01 03:06:55;;;;;;;5.75;3.33;;;;;;;12.93;89.66;100167.41;20910273;28;20053;-69
2022/06/01 03:17:08;;;;;;;7.70;4.25;;;;;;;12.96;90.25;100168.19;20909369;28;20052;-67
2022/06/01 03:27:10;;;;;;;6.30;3.80;;;;;;;12.77;90.96;100172.25;20909035;28;20041;-68
2022/06/01 03:37:11;;;;;;;6.82;3.47;;;;;;;12.64;88.67;100162.97;20907766;28;20468;-67
2022/06/01 03:47:13;;;;;;;6.13;3.58;;;;;;;12.63;89.01;100164.75;20907081;28;20045;-66
2022/06/01 03:57:14;;;;;;;7.10;3.97;;;;;;;12.62;89.94;100162.19;20905550;28;20049;-67
2022/06/01 04:07:16;;;;;;;7.50;3.95;;;;;;;12.41;90.60;100190.75;20904852;28;20193;-67
2022/06/01 04:17:17;;;;;;;7.80;3.75;;;;;;;12.29;90.69;100191.06;20904683;28;20099;-66
2022/06/01 04:27:19;;;;;;;8.13;3.90;;;;;;;13.06;85.44;100184.53;20904764;28;20053;-67
2022/06/01 04:37:20;;;;;;;6.57;3.33;;;;;;;14.81;74.63;100185.84;20902640;28;20103;-67
2022/06/01 04:47:22;;;;;;;6.97;3.40;;;;;;;15.19;70.02;100175.66;20902903;28;20049;-66
2022/06/01 04:57:23;;;;;;;7.95;2.97;;;;;;;14.29;76.03;100186.81;20901821;28;20056;-66
2022/06/01 05:07:25;;;;;;;5.03;3.08;;;;;;;14.06;77.18;100187.59;20901161;28;20682;-67
2022/06/01 05:17:30;;;;;;;7.32;2.97;;;;;;;14.11;76.64;100193.56;20901326;28;20065;-63
2022/06/01 05:27:32;;;;;;;6.80;3.03;;;;;;;14.04;73.83;100203.44;20900793;28;20041;-63
2022/06/01 05:37:33;;;;;;;5.93;2.63;;;;;;;14.36;72.16;100198.84;20899494;28;20052;-64
2022/06/01 05:47:36;;;;;;;7.43;2.70;;;;;;;14.44;71.02;100194.19;20899778;28;20049;-64
2022/06/01 05:57:38;;;;;;;7.95;3.70;;;;;;;14.77;71.97;100193.94;20899643;28;20514;-64
2022/06/01 06:07:39;;;;;;;5.47;2.50;;;;;;;15.18;73.20;100207.34;20898376;28;20116;-63
2022/06/01 06:17:41;;;;;;;7.22;2.75;;;;;;;15.47;71.40;100195.66;20898670;28;20056;-65
2022/06/01 06:27:42;;;;;;;4.15;2.13;;;;;;;15.83;67.39;100198.69;20909218;28;20048;-65
2022/06/01 06:37:44;;;;;;;5.93;2.10;;;;;;;16.23;60.79;100197.00;20912165;28;20041;-64
2022/06/01 06:47:46;;;;;;;2.95;1.50;;;;;;;16.56;56.70;100206.13;20912424;28;20045;-67
2022/06/01 06:57:48;;;;;;;5.50;1.80;;;;;;;16.64;54.60;100208.47;20912052;28;20053;-66
2022/06/01 07:07:49;;;;;;;3.75;1.80;;;;;;;17.02;51.80;100209.44;20926951;28;20497;-68
2022/06/01 07:17:51;;;;;;;3.67;1.60;;;;;;;17.42;52.32;100218.16;20967635;28;20060;-67
2022/06/01 07:27:54;;;;;;;5.03;1.60;;;;;;;17.55;50.53;100213.16;20907369;28;20045;-66
2022/06/01 07:48:17;;;;;;;4.82;2.00;;;;;;;18.09;48.57;100212.28;20983307;28;20101;-71
2022/06/01 07:58:39;;;;;;;3.75;1.70;;;;;;;18.33;47.13;100209.34;20981858;28;20139;-67
2022/06/01 08:08:40;;;;;;;4.18;1.75;;;;;;;18.38;47.41;100207.31;20980832;28;20048;-70
2022/06/01 08:18:41;;;;;;;5.60;1.95;;;;;;;18.60;47.11;100213.25;20906125;28;20102;-67
2022/06/01 08:28:43;;;;;;;7.78;2.08;;;;;;;18.60;48.04;100223.84;20896943;28;20049;-66
2022/06/01 08:38:44;;;;;;;5.47;1.70;;;;;;;19.00;51.14;100202.34;20896278;28;20048;-70
2022/06/01 08:48:53;;;;;;;6.75;1.75;;;;;;;19.68;44.69;100211.84;20895619;28;20094;-67
2022/06/01 08:59:29;;;;;;;5.75;1.60;;;;;;;20.27;44.30;100213.84;20895581;28;20056;-67
2022/06/01 09:10:03;;;;;;;4.40;1.77;;;;;;;20.27;41.27;100229.78;20894054;28;20102;-67
2022/06/01 09:30:35;;;;;;;3.92;1.45;;;;;;;20.75;44.20;100218.91;20810739;28;20045;-65
2022/06/01 09:40:37;;;;;;;6.63;1.70;;;;;;;20.21;43.19;100229.19;20810458;28;20461;-64
2022/06/01 09:50:42;;;;;;;2.90;1.40;;;;;;;20.35;41.81;100208.91;20811079;28;20457;-65
2022/06/01 10:11:27;;;;;;;3.80;1.55;;;;;;;21.70;39.59;100206.75;20848919;28;20135;-64
2022/06/01 10:21:45;;;;;;;5.65;1.20;;;;;;;21.76;37.73;100191.25;20990688;28;20049;-65
2022/06/01 10:31:58;;;;;;;4.93;1.38;;;;;;;21.91;36.47;100185.88;20989518;28;20041;-65
2022/06/01 10:42:15;;;;;;;4.50;1.15;;;;;;;21.80;36.00;100193.69;20988479;28;20053;-65
2022/06/01 10:52:21;;;;;;;3.58;1.52;;;;;;;21.66;36.17;100186.63;20987435;28;20059;-65
2022/06/01 11:03:00;;;;;;;6.25;1.98;;;;;;;21.87;36.76;100173.69;20986249;28;20057;-65
2022/06/01 11:13:22;;;;;;;3.05;1.30;;;;;;;21.85;35.15;100175.63;20958675;28;20049;-65
2022/06/01 11:24:01;;;;;;;2.70;1.10;;;;;;;22.31;33.63;100170.72;20902981;28;20071;-65
2022/06/01 11:34:28;;;;;;;5.18;1.20;;;;;;;22.72;31.69;100164.38;20902065;28;20090;-65
2022/06/01 11:44:35;;;;;;;2.28;1.00;;;;;;;23.22;30.10;100147.44;20901362;28;20107;-65
2022/06/01 11:54:37;;;;;;;3.72;0.98;;;;;;;22.87;29.79;100149.09;20900487;28;20107;-64
2022/06/01 12:04:38;;;;;;;3.95;0.77;;;;;;;23.62;28.08;100139.19;20898702;28;20060;-66
2022/06/01 12:14:56;;;;;;;3.65;1.02;;;;;;;23.39;29.59;100142.69;20938640;28;20052;-65
2022/06/01 12:35:20;;;;;;;4.13;1.10;;;;;;;23.03;30.42;100128.34;20978867;28;20583;-64
2022/06/01 12:45:40;;;;;;;3.00;0.98;;;;;;;23.32;29.95;100126.25;20979219;28;20048;-64
2022/06/01 12:55:44;;;;;;;2.10;0.90;;;;;;;22.27;32.19;100131.88;20976766;28;20045;-65
2022/06/01 13:05:50;;;;;;;3.40;0.80;;;;;;;22.84;31.84;100125.25;20977091;28;20082;-64
2022/06/01 13:16:01;;;;;;;4.43;1.20;;;;;;;22.73;32.38;100110.88;20926464;28;20083;-64
2022/06/01 13:26:06;;;;;;;4.53;1.20;;;;;;;22.75;32.02;100103.59;20892598;28;20131;-64
2022/06/01 13:36:14;;;;;;;2.95;1.00;;;;;;;22.63;31.35;100101.81;20911287;28;20099;-64
2022/06/01 13:46:25;;;;;;;4.97;1.00;;;;;;;22.69;32.43;100120.03;20920620;28;20139;-65
2022/06/01 13:56:41;;;;;;;5.20;0.80;;;;;;;23.16;30.84;100094.47;20919330;28;20052;-64
2022/06/01 14:06:45;;;;;;;3.72;0.70;;;;;;;23.28;30.05;100098.03;20919961;28;20049;-65
2022/06/01 14:16:53;;;;;;;3.03;1.00;;;;;;;23.18;31.17;100092.53;20977756;28;20122;-64
2022/06/01 14:37:15;;;;;;;2.75;0.95;;;;;;;23.38;30.29;100087.53;21000313;28;20048;-64
2022/06/01 14:47:16;;;;;;;2.97;1.02;;;;;;;23.61;28.31;100080.47;20992512;28;20087;-64
2022/06/01 14:57:18;;;;;;;3.80;0.98;;;;;;;23.64;29.54;100085.63;20986497;28;20055;-64
2022/06/01 15:07:19;;;;;;;6.53;1.10;;;;;;;23.71;29.63;100092.22;20986972;28;20074;-64
2022/06/01 15:17:24;;;;;;;2.50;0.77;;;;;;;23.44;28.97;100089.78;20923147;28;20106;-64
2022/06/01 15:27:26;;;;;;;3.47;0.90;;;;;;;23.37;29.35;100088.50;20901485;28;20102;-64
2022/06/01 15:47:54;;;;;;;3.97;1.00;;;;;;;23.58;29.58;100073.56;20900226;28;20118;-65
2022/06/01 15:57:56;;;;;;;2.67;1.05;;;;;;;22.89;30.36;100083.94;20898014;28;20059;-64
2022/06/01 16:07:57;;;;;;;3.97;0.88;;;;;;;23.53;29.75;100078.41;20897870;28;20099;-69
2022/06/01 16:17:59;;;;;;;1.98;0.80;;;;;;;23.86;29.22;100085.72;20965660;28;20063;-67
2022/06/01 16:28:00;;;;;;;2.25;1.30;;;;;;;23.54;30.17;100086.28;20979685;28;20055;-67
2022/06/01 16:38:02;;;;;;;4.78;0.80;;;;;;;23.87;29.77;100076.72;20978038;28;20052;-68
2022/06/01 16:48:06;;;;;;;4.25;0.80;;;;;;;23.37;30.26;100091.19;20977828;28;20536;-67
2022/06/01 16:58:09;;;;;;;1.48;0.80;;;;;;;22.82;31.78;100103.19;20977320;28;20063;-68
2022/06/01 17:08:10;;;;;;;3.58;1.08;;;;;;;23.48;30.32;100101.94;20975808;28;20045;-69
2022/06/01 17:18:12;;;;;;;1.67;0.82;;;;;;;22.94;31.05;100110.31;20906239;28;20098;-67
2022/06/01 17:28:14;;;;;;;4.32;0.95;;;;;;;23.13;31.29;100116.03;20893115;28;20045;-67
2022/06/01 17:38:15;;;;;;;3.25;1.05;;;;;;;23.21;31.01;100113.69;20892371;28;20060;-72
2022/06/01 17:48:27;;;;;;;2.67;0.90;;;;;;;23.14;30.87;100120.44;20892389;28;20049;-67
2022/06/01 17:58:29;;;;;;;2.15;0.80;;;;;;;23.18;31.03;100132.59;20891256;28;20052;-66
2022/06/01 18:08:32;;;;;;;3.65;1.00;;;;;;;22.71;30.94;100139.50;20890924;28;20052;-67
2022/06/01 18:18:36;;;;;;;2.80;0.80;;;;;;;22.73;30.79;100142.91;20967352;28;20056;-66
2022/06/01 18:28:39;;;;;;;2.30;0.90;;;;;;;22.58;31.24;100149.31;20989159;28;20102;-67
2022/06/01 18:38:41;;;;;;;4.63;1.00;;;;;;;22.13;32.09;100159.50;20988295;28;20052;-66
2022/06/01 18:48:46;;;;;;;3.97;0.88;;;;;;;21.67;33.21;100173.19;20987769;28;20070;-67
2022/06/01 18:58:53;;;;;;;4.03;0.80;;;;;;;21.17;34.02;100182.56;20987358;28;20048;-68
2022/06/01 19:08:55;;;;;;;2.08;0.80;;;;;;;20.78;34.97;100195.72;20985848;28;20114;-68
2022/06/01 19:18:58;;;;;;;2.53;1.00;;;;;;;20.33;35.69;100209.00;20909534;28;20048;-67
2022/06/01 19:29:00;;;;;;;2.33;0.80;;;;;;;20.07;36.11;100231.78;20901834;28;20103;-68
2022/06/01 19:49:23;;;;;;;3.08;1.00;;;;;;;19.35;36.86;100282.72;20900229;28;20094;-66
2022/06/01 19:59:25;;;;;;;2.30;0.70;;;;;;;19.15;37.54;100310.34;20898439;28;20156;-72
2022/06/01 20:09:27;;;;;;;3.83;1.02;;;;;;;18.90;38.28;100324.03;20897005;28;20126;-66
2022/06/01 20:19:29;;;;;;;3.53;0.82;;;;;;;18.70;38.89;100339.16;20976931;28;20044;-67
2022/06/01 20:29:31;;;;;;;5.15;0.95;;;;;;;18.52;40.07;100353.31;20979044;28;20425;-66
2022/06/01 20:39:32;;;;;;;2.10;0.85;;;;;;;18.34;41.47;100362.16;20977187;28;20047;-67
2022/06/01 20:49:35;;;;;;;2.60;1.35;;;;;;;18.02;43.60;100380.47;20977448;28;20040;-66
2022/06/01 20:59:36;;;;;;;3.70;1.35;;;;;;;17.52;44.32;100425.94;20976864;28;20053;-67
2022/06/01 21:09:38;;;;;;;4.13;1.00;;;;;;;17.24;46.66;100446.59;20976660;28;20103;-67
2022/06/01 21:19:40;;;;;;;3.80;0.90;;;;;;;17.15;48.15;100454.00;20893972;28;20049;-67
2022/06/01 21:29:43;;;;;;;3.15;1.08;;;;;;;16.90;50.23;100463.84;20893456;28;20376;-67
2022/06/01 21:39:45;;;;;;;3.88;1.10;;;;;;;16.58;51.54;100473.94;20891999;28;20103;-69
2022/06/01 21:49:48;;;;;;;2.45;1.10;;;;;;;16.44;53.15;100491.25;20892801;28;20103;-67
2022/06/01 21:59:50;;;;;;;3.63;1.17;;;;;;;16.07;55.03;100501.41;20907425;28;20528;-66
2022/06/01 22:09:52;;;;;;;2.67;1.00;;;;;;;15.74;57.09;100508.75;20913646;28;20106;-69
2022/06/01 22:19:53;;;;;;;3.50;1.33;;;;;;;15.58;58.59;100526.03;20914794;28;20568;-66
2022/06/01 22:29:55;;;;;;;5.07;1.25;;;;;;;15.36;60.25;100541.69;20913656;28;20080;-66
2022/06/01 22:40:02;;;;;;;3.38;1.23;;;;;;;15.26;60.83;100545.56;20912346;28;20048;-67
2022/06/01 22:50:08;;;;;;;4.05;1.73;;;;;;;15.08;62.54;100557.56;20912856;28;20132;-67
2022/06/01 23:00:14;;;;;;;4.22;1.50;;;;;;;15.16;62.36;100565.25;20911498;28;20056;-66
2022/06/01 23:10:16;;;;;;;6.28;1.55;;;;;;;14.83;64.70;100578.56;20910314;28;20490;-69
2022/06/01 23:20:28;;;;;;;2.63;1.40;;;;;;;14.81;64.72;100583.03;20910131;28;20485;-67
2022/06/01 23:30:48;;;;;;;6.13;1.45;;;;;;;14.79;65.24;100598.88;20908944;28;20052;-68
2022/06/01 23:41:16;;;;;;;3.60;1.52;;;;;;;14.48;67.35;100592.78;20908751;28;20053;-66
2022/06/01 23:51:41;;;;;;;4.85;2.05;;;;;;;14.27;68.68;100591.56;20907641;28;20049;-65
